createdAt,value
2018-11-23T00:00:39.148Z,1013.27
2018-11-23T00:01:39.124Z,1013.26
2018-11-23T00:02:39.093Z,1013.34
2018-11-23T00:03:39.067Z,1013.35
2018-11-23T00:04:39.040Z,1013.34
2018-11-23T00:05:39.013Z,1013.31
2018-11-23T00:06:38.985Z,1013.31
2018-11-23T00:07:38.957Z,1013.36
2018-11-23T00:08:38.933Z,1013.37
2018-11-23T00:09:38.901Z,1013.40
2018-11-23T00:10:38.874Z,1013.38
2018-11-23T00:11:38.853Z,1013.41
2018-11-23T00:12:38.829Z,1013.39
2018-11-23T00:13:38.792Z,1013.42
2018-11-23T00:14:38.768Z,1013.42
2018-11-23T00:15:38.739Z,1013.46
2018-11-23T00:16:38.712Z,1013.47
2018-11-23T00:17:38.684Z,1013.48
2018-11-23T00:18:38.656Z,1013.47
2018-11-23T00:19:38.628Z,1013.53
2018-11-23T00:20:38.601Z,1013.48
2018-11-23T00:21:38.573Z,1013.49
2018-11-23T00:22:38.546Z,1013.54
2018-11-23T00:23:38.519Z,1013.53
2018-11-23T00:24:38.490Z,1013.50
2018-11-23T00:25:38.463Z,1013.50
2018-11-23T00:26:38.436Z,1013.53
2018-11-23T00:27:38.411Z,1013.52
2018-11-23T00:28:38.387Z,1013.53
2018-11-23T00:29:38.353Z,1013.56
2018-11-23T00:30:38.330Z,1013.55
2018-11-23T00:31:38.305Z,1013.60
2018-11-23T00:32:38.273Z,1013.60
2018-11-23T00:33:38.242Z,1013.59
2018-11-23T00:34:38.218Z,1013.62
2018-11-23T00:35:38.187Z,1013.61
2018-11-23T00:36:38.166Z,1013.65
2018-11-23T00:37:38.133Z,1013.65
2018-11-23T00:38:38.111Z,1013.66
2018-11-23T00:39:38.080Z,1013.66
2018-11-23T00:40:38.052Z,1013.66
2018-11-23T00:41:38.022Z,1013.62
2018-11-23T00:42:37.997Z,1013.65
2018-11-23T00:43:37.970Z,1013.62
2018-11-23T00:44:37.941Z,1013.64
2018-11-23T00:45:42.836Z,1013.64
2018-11-23T00:46:37.898Z,1013.66
2018-11-23T00:47:37.857Z,1013.63
2018-11-23T00:48:37.830Z,1013.63
2018-11-23T00:49:37.803Z,1013.65
2018-11-23T00:50:37.779Z,1013.67
2018-11-23T00:51:37.748Z,1013.68
2018-11-23T00:52:37.720Z,1013.64
2018-11-23T00:53:37.707Z,1013.66
2018-11-23T00:54:37.664Z,1013.66
2018-11-23T00:55:37.637Z,1013.69
2018-11-23T00:56:37.612Z,1013.67
2018-11-23T00:57:37.584Z,1013.68
2018-11-23T00:58:37.555Z,1013.69
2018-11-23T00:59:37.528Z,1013.64
2018-11-23T01:00:37.500Z,1013.63
2018-11-23T01:01:37.471Z,1013.62
2018-11-23T01:02:37.448Z,1013.63
2018-11-23T01:03:37.417Z,1013.61
2018-11-23T01:04:37.398Z,1013.64
2018-11-23T01:05:37.361Z,1013.62
2018-11-23T01:06:37.339Z,1013.62
2018-11-23T01:07:37.309Z,1013.61
2018-11-23T01:08:37.286Z,1013.62
2018-11-23T01:09:37.253Z,1013.61
2018-11-23T01:10:37.227Z,1013.62
2018-11-23T01:11:37.199Z,1013.57
2018-11-23T01:12:37.176Z,1013.59
2018-11-23T01:13:37.145Z,1013.58
2018-11-23T01:14:37.116Z,1013.58
2018-11-23T01:15:37.100Z,1013.56
2018-11-23T01:16:37.067Z,1013.56
2018-11-23T01:17:37.035Z,1013.57
2018-11-23T01:18:37.009Z,1013.58
2018-11-23T01:19:36.983Z,1013.58
2018-11-23T01:20:36.979Z,1013.59
2018-11-23T01:21:36.932Z,1013.55
2018-11-23T01:22:36.899Z,1013.58
2018-11-23T01:23:36.878Z,1013.60
2018-11-23T01:24:36.846Z,1013.61
2018-11-23T01:25:36.817Z,1013.62
2018-11-23T01:26:36.791Z,1013.60
2018-11-23T01:27:36.765Z,1013.60
2018-11-23T01:28:36.738Z,1013.58
2018-11-23T01:29:36.712Z,1013.61
2018-11-23T01:30:36.682Z,1013.61
2018-11-23T01:31:36.656Z,1013.64
2018-11-23T01:32:36.628Z,1013.58
2018-11-23T01:33:36.601Z,1013.60
2018-11-23T01:34:36.576Z,1013.59
2018-11-23T01:35:36.554Z,1013.56
2018-11-23T01:36:36.520Z,1013.54
2018-11-23T01:37:36.492Z,1013.56
2018-11-23T01:38:36.469Z,1013.53
2018-11-23T01:39:36.440Z,1013.55
2018-11-23T01:40:36.412Z,1013.58
2018-11-23T01:41:36.387Z,1013.57
2018-11-23T01:42:36.356Z,1013.57
2018-11-23T01:43:36.331Z,1013.56
2018-11-23T01:44:36.303Z,1013.56
2018-11-23T01:45:36.277Z,1013.54
2018-11-23T01:46:36.250Z,1013.54
2018-11-23T01:47:36.221Z,1013.59
2018-11-23T01:48:36.195Z,1013.57
2018-11-23T01:49:36.167Z,1013.54
2018-11-23T01:50:36.142Z,1013.52
2018-11-23T01:51:36.114Z,1013.54
2018-11-23T01:52:36.089Z,1013.59
2018-11-23T01:53:36.071Z,1013.51
2018-11-23T01:54:36.038Z,1013.50
2018-11-23T01:55:36.007Z,1013.54
2018-11-23T01:56:35.981Z,1013.51
2018-11-23T01:57:35.954Z,1013.52
2018-11-23T01:58:35.926Z,1013.52
2018-11-23T01:59:35.904Z,1013.50
2018-11-23T02:00:35.872Z,1013.51
2018-11-23T02:01:35.846Z,1013.52
2018-11-23T02:02:35.820Z,1013.52
2018-11-23T02:03:35.791Z,1013.52
2018-11-23T02:04:35.765Z,1013.50
2018-11-23T02:05:35.743Z,1013.51
2018-11-23T02:06:35.719Z,1013.49
2018-11-23T02:07:35.684Z,1013.46
2018-11-23T02:08:35.657Z,1013.45
2018-11-23T02:09:35.636Z,1013.45
2018-11-23T02:10:35.607Z,1013.42
2018-11-23T02:11:35.577Z,1013.44
2018-11-23T02:12:35.549Z,1013.47
2018-11-23T02:13:35.530Z,1013.48
2018-11-23T02:14:35.496Z,1013.46
2018-11-23T02:15:35.481Z,1013.43
2018-11-23T02:16:35.457Z,1013.42
2018-11-23T02:17:35.413Z,1013.44
2018-11-23T02:18:35.392Z,1013.37
2018-11-23T02:19:35.364Z,1013.41
2018-11-23T02:20:35.334Z,1013.38
2018-11-23T02:21:35.305Z,1013.37
2018-11-23T02:22:35.278Z,1013.39
2018-11-23T02:23:35.253Z,1013.34
2018-11-23T02:24:35.230Z,1013.35
2018-11-23T02:25:35.214Z,1013.37
2018-11-23T02:26:35.174Z,1013.36
2018-11-23T02:27:35.143Z,1013.35
2018-11-23T02:28:35.119Z,1013.35
2018-11-23T02:29:35.092Z,1013.34
2018-11-23T02:30:35.063Z,1013.37
2018-11-23T02:31:35.036Z,1013.34
2018-11-23T02:32:35.009Z,1013.31
2018-11-23T02:33:34.983Z,1013.29
2018-11-23T02:34:34.957Z,1013.35
2018-11-23T02:35:34.927Z,1013.31
2018-11-23T02:36:34.902Z,1013.29
2018-11-23T02:37:34.872Z,1013.27
2018-11-23T02:38:34.845Z,1013.27
2018-11-23T02:39:34.818Z,1013.26
2018-11-23T02:40:34.791Z,1013.26
2018-11-23T02:41:34.763Z,1013.31
2018-11-23T02:42:34.737Z,1013.29
2018-11-23T02:43:34.712Z,1013.29
2018-11-23T02:44:34.693Z,1013.28
2018-11-23T02:45:34.661Z,1013.30
2018-11-23T02:46:34.629Z,1013.33
2018-11-23T02:47:34.604Z,1013.26
2018-11-23T02:48:34.578Z,1013.31
2018-11-23T02:49:34.544Z,1013.30
2018-11-23T02:50:34.520Z,1013.30
2018-11-23T02:51:34.494Z,1013.30
2018-11-23T02:52:34.464Z,1013.32
2018-11-23T02:53:34.436Z,1013.27
2018-11-23T02:54:34.415Z,1013.26
2018-11-23T02:55:34.382Z,1013.26
2018-11-23T02:56:34.356Z,1013.25
2018-11-23T02:57:34.328Z,1013.25
2018-11-23T02:58:34.301Z,1013.22
2018-11-23T02:59:34.273Z,1013.21
2018-11-23T03:00:34.246Z,1013.21
2018-11-23T03:01:34.218Z,1013.19
2018-11-23T03:02:34.192Z,1013.22
2018-11-23T03:03:34.165Z,1013.17
2018-11-23T03:04:34.136Z,1013.23
2018-11-23T03:05:34.107Z,1013.18
2018-11-23T03:06:34.082Z,1013.19
2018-11-23T03:07:34.055Z,1013.20
2018-11-23T03:08:34.028Z,1013.21
2018-11-23T03:09:33.998Z,1013.16
2018-11-23T03:10:33.983Z,1013.16
2018-11-23T03:11:33.944Z,1013.16
2018-11-23T03:12:33.919Z,1013.12
2018-11-23T03:13:33.893Z,1013.13
2018-11-23T03:14:33.865Z,1013.06
2018-11-23T03:15:33.835Z,1013.12
2018-11-23T03:16:33.809Z,1013.10
2018-11-23T03:17:33.779Z,1013.12
2018-11-23T03:18:33.752Z,1013.11
2018-11-23T03:19:33.735Z,1013.11
2018-11-23T03:20:33.698Z,1013.09
2018-11-23T03:21:33.671Z,1013.07
2018-11-23T03:22:33.663Z,1013.06
2018-11-23T03:23:33.615Z,1013.07
2018-11-23T03:24:33.588Z,1013.05
2018-11-23T03:25:33.558Z,1013.05
2018-11-23T03:26:33.531Z,1013.09
2018-11-23T03:27:33.503Z,1013.09
2018-11-23T03:28:33.490Z,1013.07
2018-11-23T03:29:33.449Z,1013.07
2018-11-23T03:30:33.427Z,1013.08
2018-11-23T03:31:33.398Z,1013.07
2018-11-23T03:32:33.366Z,1013.06
2018-11-23T03:33:33.337Z,1013.06
2018-11-23T03:34:33.315Z,1013.08
2018-11-23T03:35:33.286Z,1013.09
2018-11-23T03:36:33.255Z,1013.12
2018-11-23T03:37:33.236Z,1013.13
2018-11-23T03:38:33.200Z,1013.14
2018-11-23T03:39:34.191Z,1013.12
2018-11-23T03:40:33.145Z,1013.15
2018-11-23T03:41:33.116Z,1013.15
2018-11-23T03:42:33.090Z,1013.16
2018-11-23T03:43:33.063Z,1013.20
2018-11-23T03:44:33.035Z,1013.18
2018-11-23T03:45:33.006Z,1013.19
2018-11-23T03:46:33.003Z,1013.21
2018-11-23T03:47:32.951Z,1013.23
2018-11-23T03:48:32.925Z,1013.22
2018-11-23T03:49:32.894Z,1013.21
2018-11-23T03:50:32.869Z,1013.18
2018-11-23T03:51:32.840Z,1013.17
2018-11-23T03:52:32.815Z,1013.21
2018-11-23T03:53:32.790Z,1013.17
2018-11-23T03:54:32.758Z,1013.18
2018-11-23T03:55:32.734Z,1013.20
2018-11-23T03:56:32.704Z,1013.12
2018-11-23T03:57:32.676Z,1013.15
2018-11-23T03:58:32.651Z,1013.13
2018-11-23T03:59:32.617Z,1013.13
2018-11-23T04:00:32.591Z,1013.14
2018-11-23T04:01:32.561Z,1013.14
2018-11-23T04:02:32.534Z,1013.14
2018-11-23T04:03:32.506Z,1013.13
2018-11-23T04:04:32.477Z,1013.11
2018-11-23T04:05:32.450Z,1013.11
2018-11-23T04:06:32.420Z,1013.12
2018-11-23T04:07:32.394Z,1013.11
2018-11-23T04:08:32.369Z,1013.11
2018-11-23T04:09:32.340Z,1013.13
2018-11-23T04:10:32.311Z,1013.09
2018-11-23T04:11:32.286Z,1013.14
2018-11-23T04:12:32.256Z,1013.15
2018-11-23T04:13:32.226Z,1013.07
2018-11-23T04:14:32.199Z,1013.12
2018-11-23T04:15:32.170Z,1013.08
2018-11-23T04:16:32.146Z,1013.12
2018-11-23T04:17:32.132Z,1013.09
2018-11-23T04:18:32.095Z,1013.11
2018-11-23T04:19:32.059Z,1013.05
2018-11-23T04:20:32.033Z,1013.11
2018-11-23T04:21:32.003Z,1013.08
2018-11-23T04:22:31.974Z,1013.10
2018-11-23T04:23:31.951Z,1013.04
2018-11-23T04:24:31.924Z,1013.05
2018-11-23T04:25:31.893Z,1013.04
2018-11-23T04:26:31.863Z,1013.07
2018-11-23T04:27:31.833Z,1013.05
2018-11-23T04:28:31.806Z,1013.05
2018-11-23T04:29:31.781Z,1013.09
2018-11-23T04:30:31.750Z,1013.06
2018-11-23T04:31:31.721Z,1013.04
2018-11-23T04:32:31.697Z,1013.07
2018-11-23T04:33:31.666Z,1013.05
2018-11-23T04:34:31.635Z,1013.01
2018-11-23T04:35:31.609Z,1013.04
2018-11-23T04:36:31.584Z,1013.02
2018-11-23T04:37:31.554Z,1013.01
2018-11-23T04:38:31.525Z,1013.02
2018-11-23T04:39:31.506Z,1013.04
2018-11-23T04:40:31.469Z,1012.97
2018-11-23T04:41:31.440Z,1013.00
2018-11-23T04:42:31.423Z,1012.97
2018-11-23T04:43:31.385Z,1012.98
2018-11-23T04:44:31.358Z,1012.99
2018-11-23T04:45:31.328Z,1012.99
2018-11-23T04:46:31.299Z,1012.98
2018-11-23T04:47:31.275Z,1012.98
2018-11-23T04:48:31.246Z,1012.99
2018-11-23T04:49:31.213Z,1013.00
2018-11-23T04:50:31.185Z,1012.98
2018-11-23T04:51:31.164Z,1013.00
2018-11-23T04:52:31.133Z,1012.98
2018-11-23T04:53:31.101Z,1013.01
2018-11-23T04:54:31.073Z,1013.02
2018-11-23T04:55:31.047Z,1012.99
2018-11-23T04:56:31.019Z,1013.00
2018-11-23T04:57:30.988Z,1012.97
2018-11-23T04:58:30.962Z,1012.97
2018-11-23T04:59:30.933Z,1012.95
2018-11-23T05:00:30.904Z,1012.92
2018-11-23T05:01:30.879Z,1012.92
2018-11-23T05:02:30.850Z,1012.90
2018-11-23T05:03:30.820Z,1012.88
2018-11-23T05:04:30.792Z,1012.88
2018-11-23T05:05:30.764Z,1012.88
2018-11-23T05:06:30.735Z,1012.88
2018-11-23T05:07:30.707Z,1012.87
2018-11-23T05:08:30.684Z,1012.92
2018-11-23T05:09:30.652Z,1012.87
2018-11-23T05:10:30.626Z,1012.90
2018-11-23T05:11:30.605Z,1012.86
2018-11-23T05:12:30.566Z,1012.88
2018-11-23T05:13:30.539Z,1012.89
2018-11-23T05:14:30.510Z,1012.90
2018-11-23T05:15:30.483Z,1012.91
2018-11-23T05:16:30.454Z,1012.92
2018-11-23T05:17:30.424Z,1012.95
2018-11-23T05:18:30.401Z,1012.95
2018-11-23T05:19:30.369Z,1012.95
2018-11-23T05:20:30.555Z,1012.93
2018-11-23T05:21:30.312Z,1012.91
2018-11-23T05:22:30.285Z,1012.89
2018-11-23T05:23:30.256Z,1012.87
2018-11-23T05:24:30.229Z,1012.86
2018-11-23T05:25:30.202Z,1012.81
2018-11-23T05:26:30.274Z,1012.83
2018-11-23T05:27:30.147Z,1012.80
2018-11-23T05:28:30.115Z,1012.80
2018-11-23T05:29:30.085Z,1012.77
2018-11-23T05:30:30.057Z,1012.79
2018-11-23T05:31:30.035Z,1012.81
2018-11-23T05:32:30.005Z,1012.82
2018-11-23T05:33:29.976Z,1012.81
2018-11-23T05:34:29.950Z,1012.82
2018-11-23T05:35:29.917Z,1012.80
2018-11-23T05:36:29.890Z,1012.80
2018-11-23T05:37:29.860Z,1012.81
2018-11-23T05:38:29.836Z,1012.76
2018-11-23T05:39:29.812Z,1012.75
2018-11-23T05:40:29.778Z,1012.76
2018-11-23T05:41:29.751Z,1012.75
2018-11-23T05:42:29.720Z,1012.71
2018-11-23T05:43:29.696Z,1012.72
2018-11-23T05:44:29.685Z,1012.71
2018-11-23T05:45:29.657Z,1012.72
2018-11-23T05:46:29.607Z,1012.74
2018-11-23T05:47:29.578Z,1012.75
2018-11-23T05:48:29.551Z,1012.74
2018-11-23T05:49:29.522Z,1012.72
2018-11-23T05:50:29.495Z,1012.73
2018-11-23T05:51:29.467Z,1012.71
2018-11-23T05:52:29.439Z,1012.72
2018-11-23T05:53:29.409Z,1012.73
2018-11-23T05:54:29.389Z,1012.72
2018-11-23T05:55:29.353Z,1012.73
2018-11-23T05:56:29.328Z,1012.76
2018-11-23T05:57:29.299Z,1012.73
2018-11-23T05:58:29.268Z,1012.73
2018-11-23T05:59:29.247Z,1012.74
2018-11-23T06:00:29.218Z,1012.73
2018-11-23T06:01:29.183Z,1012.70
2018-11-23T06:02:29.154Z,1012.74
2018-11-23T06:03:29.127Z,1012.71
2018-11-23T06:04:29.099Z,1012.69
2018-11-23T06:05:29.070Z,1012.71
2018-11-23T06:06:29.046Z,1012.70
2018-11-23T06:07:29.017Z,1012.69
2018-11-23T06:08:28.988Z,1012.70
2018-11-23T06:09:28.961Z,1012.66
2018-11-23T06:10:28.931Z,1012.66
2018-11-23T06:11:28.903Z,1012.69
2018-11-23T06:12:28.875Z,1012.68
2018-11-23T06:13:28.847Z,1012.65
2018-11-23T06:14:28.817Z,1012.67
2018-11-23T06:15:28.789Z,1012.63
2018-11-23T06:16:28.762Z,1012.63
2018-11-23T06:17:28.731Z,1012.64
2018-11-23T06:18:28.710Z,1012.62
2018-11-23T06:19:28.677Z,1012.64
2018-11-23T06:20:28.651Z,1012.62
2018-11-23T06:21:28.621Z,1012.61
2018-11-23T06:22:28.597Z,1012.65
2018-11-23T06:23:28.564Z,1012.62
2018-11-23T06:24:32.163Z,1012.61
2018-11-23T06:25:28.510Z,1012.62
2018-11-23T06:26:28.478Z,1012.60
2018-11-23T06:27:28.450Z,1012.64
2018-11-23T06:28:28.584Z,1012.63
2018-11-23T06:29:28.394Z,1012.61
2018-11-23T06:30:28.367Z,1012.63
2018-11-23T06:31:28.339Z,1012.64
2018-11-23T06:32:28.315Z,1012.64
2018-11-23T06:33:29.137Z,1012.66
2018-11-23T06:34:28.257Z,1012.66
2018-11-23T06:35:28.241Z,1012.72
2018-11-23T06:38:02.095Z,1012.70
2018-11-23T06:39:02.025Z,1012.69
2018-11-23T06:40:55.416Z,1012.78
2018-11-23T06:41:55.324Z,1012.70
2018-11-23T06:43:48.706Z,1012.74
2018-11-23T06:44:48.621Z,1012.77
2018-11-23T06:46:42.985Z,1012.74
2018-11-23T06:47:42.920Z,1012.76
2018-11-23T06:49:36.263Z,1012.79
2018-11-23T06:50:36.215Z,1012.81
2018-11-23T06:52:29.575Z,1012.80
2018-11-23T06:53:29.524Z,1012.78
2018-11-23T06:55:22.860Z,1012.75
2018-11-23T06:56:22.818Z,1012.74
2018-11-23T06:58:16.176Z,1012.73
2018-11-23T06:59:16.161Z,1012.79
2018-11-23T07:00:16.085Z,1012.79
2018-11-23T07:01:16.068Z,1012.80
2018-11-23T07:02:16.028Z,1012.83
2018-11-23T07:03:15.998Z,1012.81
2018-11-23T07:04:15.965Z,1012.79
2018-11-23T07:05:15.959Z,1012.80
2018-11-23T07:06:15.913Z,1012.77
2018-11-23T07:07:15.889Z,1012.79
2018-11-23T07:08:15.865Z,1012.78
2018-11-23T07:09:15.827Z,1012.78
2018-11-23T07:10:15.799Z,1012.76
2018-11-23T07:11:15.775Z,1012.76
2018-11-23T07:12:16.718Z,1012.76
2018-11-23T07:13:15.715Z,1012.80
2018-11-23T07:14:15.695Z,1012.79
2018-11-23T07:15:15.657Z,1012.79
2018-11-23T07:16:15.633Z,1012.78
2018-11-23T07:17:15.605Z,1012.76
2018-11-23T07:18:15.598Z,1012.83
2018-11-23T07:19:15.553Z,1012.81
2018-11-23T07:20:15.537Z,1012.82
2018-11-23T07:21:21.427Z,1012.83
2018-11-23T07:22:15.458Z,1012.81
2018-11-23T07:23:15.428Z,1012.82
2018-11-23T07:24:15.436Z,1012.81
2018-11-23T07:25:15.372Z,1012.81
2018-11-23T07:26:15.343Z,1012.82
2018-11-23T07:27:15.322Z,1012.84
2018-11-23T07:28:15.839Z,1012.84
2018-11-23T07:29:15.258Z,1012.86
2018-11-23T07:30:15.232Z,1012.85
2018-11-23T07:31:15.201Z,1012.84
2018-11-23T07:32:15.173Z,1012.82
2018-11-23T07:33:15.151Z,1012.82
2018-11-23T07:34:15.123Z,1012.82
2018-11-23T07:35:15.712Z,1012.87
2018-11-23T07:36:15.064Z,1012.88
2018-11-23T07:37:15.035Z,1012.86
2018-11-23T07:38:15.005Z,1012.86
2018-11-23T07:39:14.975Z,1012.89
2018-11-23T07:40:15.007Z,1012.89
2018-11-23T07:41:14.930Z,1012.91
2018-11-23T07:42:14.899Z,1012.90
2018-11-23T07:43:14.865Z,1012.91
2018-11-23T07:44:14.839Z,1012.90
2018-11-23T07:45:14.816Z,1012.92
2018-11-23T07:46:14.785Z,1012.92
2018-11-23T07:47:14.761Z,1012.92
2018-11-23T07:48:14.732Z,1012.94
2018-11-23T07:49:14.700Z,1012.90
2018-11-23T07:50:14.668Z,1012.91
2018-11-23T07:51:14.644Z,1012.94
2018-11-23T07:52:14.614Z,1012.91
2018-11-23T07:53:14.582Z,1012.89
2018-11-23T07:54:14.561Z,1012.89
2018-11-23T07:55:14.529Z,1012.90
2018-11-23T07:56:14.503Z,1012.90
2018-11-23T07:57:14.470Z,1012.91
2018-11-23T07:58:14.448Z,1012.88
2018-11-23T07:59:14.421Z,1012.85
2018-11-23T08:00:14.387Z,1012.84
2018-11-23T08:01:14.358Z,1012.82
2018-11-23T08:02:14.334Z,1012.82
2018-11-23T08:03:14.300Z,1012.84
2018-11-23T08:04:14.279Z,1012.83
2018-11-23T08:05:14.255Z,1012.83
2018-11-23T08:06:14.227Z,1012.84
2018-11-23T08:07:14.191Z,1012.79
2018-11-23T08:08:14.162Z,1012.78
2018-11-23T08:09:14.141Z,1012.80
2018-11-23T08:10:14.104Z,1012.79
2018-11-23T08:11:14.074Z,1012.82
2018-11-23T08:12:14.053Z,1012.89
2018-11-23T08:13:14.018Z,1012.87
2018-11-23T08:14:13.995Z,1012.88
2018-11-23T08:15:13.964Z,1012.86
2018-11-23T08:16:13.941Z,1012.84
2018-11-23T08:17:13.919Z,1012.85
2018-11-23T08:18:13.885Z,1012.81
2018-11-23T08:19:13.851Z,1012.81
2018-11-23T08:20:13.822Z,1012.83
2018-11-23T08:21:13.799Z,1012.84
2018-11-23T08:22:13.766Z,1012.83
2018-11-23T08:23:13.747Z,1012.85
2018-11-23T08:24:13.711Z,1012.85
2018-11-23T08:25:13.684Z,1012.80
2018-11-23T08:26:13.655Z,1012.79
2018-11-23T08:27:13.636Z,1012.76
2018-11-23T08:28:13.599Z,1012.78
2018-11-23T08:29:13.576Z,1012.77
2018-11-23T08:30:13.546Z,1012.77
2018-11-23T08:31:13.515Z,1012.77
2018-11-23T08:32:13.495Z,1012.75
2018-11-23T08:33:13.467Z,1012.75
2018-11-23T08:34:13.431Z,1012.78
2018-11-23T08:35:13.411Z,1012.75
2018-11-23T08:36:13.383Z,1012.77
2018-11-23T08:37:13.349Z,1012.76
2018-11-23T08:38:13.325Z,1012.77
2018-11-23T08:39:13.301Z,1012.83
2018-11-23T08:40:13.270Z,1012.85
2018-11-23T08:41:13.247Z,1012.89
2018-11-23T08:42:13.232Z,1012.93
2018-11-23T08:43:13.186Z,1012.98
2018-11-23T08:44:13.161Z,1012.96
2018-11-23T08:45:13.131Z,1013.00
2018-11-23T08:46:13.724Z,1013.01
2018-11-23T08:47:14.716Z,1013.02
2018-11-23T08:48:13.077Z,1013.01
2018-11-23T08:49:13.019Z,1012.98
2018-11-23T08:50:12.998Z,1012.95
2018-11-23T08:51:12.965Z,1012.93
2018-11-23T08:52:12.934Z,1012.92
2018-11-23T08:53:12.905Z,1012.90
2018-11-23T08:54:12.887Z,1012.92
2018-11-23T08:55:12.871Z,1012.92
2018-11-23T08:56:12.829Z,1012.88
2018-11-23T08:57:12.796Z,1012.85
2018-11-23T08:58:12.782Z,1012.80
2018-11-23T08:59:12.746Z,1012.79
2018-11-23T09:00:12.718Z,1012.79
2018-11-23T09:01:12.684Z,1012.83
2018-11-23T09:02:12.658Z,1012.87
2018-11-23T09:03:12.636Z,1012.89
2018-11-23T09:04:12.604Z,1012.85
2018-11-23T09:05:12.636Z,1012.87
2018-11-23T09:06:12.584Z,1012.84
2018-11-23T09:07:12.524Z,1012.84
2018-11-23T09:08:12.496Z,1012.87
2018-11-23T09:09:12.465Z,1012.89
2018-11-23T09:10:12.442Z,1012.87
2018-11-23T09:11:12.413Z,1012.82
2018-11-23T09:12:12.382Z,1012.82
2018-11-23T09:13:12.362Z,1012.79
2018-11-23T09:14:13.233Z,1012.79
2018-11-23T09:15:12.307Z,1012.75
2018-11-23T09:16:13.231Z,1012.74
2018-11-23T09:17:13.252Z,1012.74
2018-11-23T09:18:12.222Z,1012.75
2018-11-23T09:19:12.191Z,1012.73
2018-11-23T09:20:12.169Z,1012.69
2018-11-23T09:21:12.136Z,1012.69
2018-11-23T09:22:12.111Z,1012.64
2018-11-23T09:23:12.085Z,1012.67
2018-11-23T09:24:12.057Z,1012.69
2018-11-23T09:25:12.026Z,1012.74
2018-11-23T09:26:12.004Z,1012.73
2018-11-23T09:27:11.975Z,1012.75
2018-11-23T09:28:11.952Z,1012.77
2018-11-23T09:29:11.920Z,1012.73
2018-11-23T09:30:13.733Z,1012.81
2018-11-23T09:31:11.875Z,1012.80
2018-11-23T09:32:11.903Z,1012.83
2018-11-23T09:33:11.816Z,1012.76
2018-11-23T09:34:11.789Z,1012.77
2018-11-23T09:35:11.760Z,1012.76
2018-11-23T09:36:11.731Z,1012.77
2018-11-23T09:37:11.708Z,1012.76
2018-11-23T09:38:12.243Z,1012.77
2018-11-23T09:39:11.655Z,1012.77
2018-11-23T09:40:11.622Z,1012.79
2018-11-23T09:41:12.607Z,1012.82
2018-11-23T09:42:11.568Z,1012.83
2018-11-23T09:43:11.540Z,1012.84
2018-11-23T09:44:11.516Z,1012.81
2018-11-23T09:45:11.493Z,1012.83
2018-11-23T09:46:11.467Z,1012.82
2018-11-23T09:47:11.436Z,1012.82
2018-11-23T09:48:11.411Z,1012.79
2018-11-23T09:49:11.395Z,1012.79
2018-11-23T09:50:11.354Z,1012.82
2018-11-23T09:51:11.324Z,1012.76
2018-11-23T09:52:11.298Z,1012.73
2018-11-23T09:53:11.271Z,1012.72
2018-11-23T09:54:11.244Z,1012.66
2018-11-23T09:55:18.921Z,1012.70
2018-11-23T09:57:22.009Z,1012.68
2018-11-23T09:58:31.621Z,1012.70
2018-11-23T10:00:15.296Z,1012.68
2018-11-23T10:01:23.917Z,1012.71
2018-11-23T10:03:08.603Z,1012.75
2018-11-23T10:04:08.539Z,1012.69
2018-11-23T10:05:08.593Z,1012.75
2018-11-23T10:06:09.139Z,1012.71
2018-11-23T10:07:08.459Z,1012.70
2018-11-23T10:08:09.129Z,1012.71
2018-11-23T10:09:10.143Z,1012.68
2018-11-23T10:10:17.085Z,1012.65
2018-11-23T10:12:01.737Z,1012.65
2018-11-23T10:13:02.286Z,1012.63
2018-11-23T10:14:01.648Z,1012.66
2018-11-23T10:15:01.619Z,1012.61
2018-11-23T10:16:01.592Z,1012.63
2018-11-23T10:17:01.565Z,1012.64
2018-11-23T10:18:02.188Z,1012.65
2018-11-23T10:19:01.513Z,1012.59
2018-11-23T10:20:01.535Z,1012.62
2018-11-23T10:21:01.459Z,1012.58
2018-11-23T10:22:01.432Z,1012.58
2018-11-23T10:23:02.281Z,1012.54
2018-11-23T10:24:01.389Z,1012.51
2018-11-23T10:25:11.026Z,1012.46
2018-11-23T10:26:54.841Z,1012.49
2018-11-23T10:27:54.653Z,1012.53
2018-11-23T10:31:29.761Z,1012.46
2018-11-23T10:32:21.988Z,1012.45
2018-11-23T10:34:15.380Z,1012.42
2018-11-23T10:35:15.889Z,1012.37
2018-11-23T10:37:09.633Z,1012.41
2018-11-23T10:38:09.593Z,1012.29
2018-11-23T10:40:13.027Z,1012.22
2018-11-23T10:41:10.814Z,1012.22
2018-11-23T10:43:09.860Z,1012.21
2018-11-23T10:45:31.794Z,1012.15
2018-11-23T10:48:26.100Z,1012.11
2018-11-23T10:49:26.041Z,1012.16
2018-11-23T10:54:31.354Z,1012.13
2018-11-23T10:57:58.094Z,1012.09
2018-11-23T11:07:05.158Z,1011.99
2018-11-23T11:07:57.524Z,1012.01
2018-11-23T11:09:52.897Z,1011.92
2018-11-23T11:11:01.593Z,1011.84
2018-11-23T11:12:46.124Z,1011.90
2018-11-23T11:18:47.557Z,1011.87
2018-11-23T11:19:38.994Z,1011.80
2018-11-23T11:21:32.894Z,1011.84
2018-11-23T11:24:51.466Z,1011.82
2018-11-23T11:26:00.068Z,1011.88
2018-11-23T11:27:45.793Z,1011.85
2018-11-23T11:28:45.746Z,1011.89
2018-11-23T11:31:39.549Z,1011.91
2018-11-23T11:32:30.119Z,1011.86
2018-11-23T11:34:23.465Z,1011.90
2018-11-23T11:35:31.127Z,1011.89
2018-11-23T11:37:17.791Z,1011.86
2018-11-23T11:38:17.733Z,1011.84
2018-11-23T11:39:18.207Z,1011.91
2018-11-23T11:40:17.671Z,1011.85
2018-11-23T11:41:17.647Z,1011.81
2018-11-23T11:42:17.620Z,1011.77
2018-11-23T11:43:26.276Z,1011.77
2018-11-23T11:49:24.882Z,1011.71
2018-11-23T11:50:24.810Z,1011.68
2018-11-23T11:52:18.181Z,1011.62
2018-11-23T11:53:18.119Z,1011.64
2018-11-23T11:55:11.462Z,1011.62
2018-11-23T11:56:11.456Z,1011.58
2018-11-23T11:58:04.791Z,1011.58
2018-11-23T11:59:04.728Z,1011.55
2018-11-23T12:00:59.128Z,1011.44
2018-11-23T12:01:59.063Z,1011.46
2018-11-23T12:03:52.366Z,1011.45
2018-11-23T12:05:00.000Z,1011.46
2018-11-23T12:08:27.488Z,1011.43
2018-11-23T12:09:17.735Z,1011.42
2018-11-23T12:10:25.389Z,1011.44
2018-11-23T12:12:11.068Z,1011.37
2018-11-23T12:13:11.010Z,1011.43
2018-11-23T12:14:10.999Z,1011.45
2018-11-23T12:15:18.627Z,1011.41
2018-11-23T12:17:06.292Z,1011.40
2018-11-23T12:18:06.225Z,1011.37
2018-11-23T12:19:59.581Z,1011.37
2018-11-23T12:20:59.540Z,1011.34
2018-11-23T12:23:43.981Z,1011.29
2018-11-23T12:24:43.929Z,1011.29
2018-11-23T12:26:38.293Z,1011.24
2018-11-23T12:27:38.232Z,1011.20
2018-11-23T12:28:38.210Z,1011.22
2018-11-23T12:29:38.183Z,1011.20
2018-11-23T12:30:38.170Z,1011.21
2018-11-23T12:31:45.794Z,1011.17
2018-11-23T12:32:45.753Z,1011.22
2018-11-23T12:34:40.115Z,1011.13
2018-11-23T12:35:32.420Z,1011.18
2018-11-23T12:37:25.781Z,1011.10
2018-11-23T12:38:25.724Z,1011.12
2018-11-23T12:40:19.070Z,1011.14
2018-11-23T12:41:19.031Z,1011.10
2018-11-23T12:43:12.395Z,1011.12
2018-11-23T12:44:12.337Z,1011.08
2018-11-23T12:45:12.313Z,1011.07
2018-11-23T12:46:12.289Z,1011.04
2018-11-23T12:47:12.263Z,1010.99
2018-11-23T12:48:12.259Z,1011.02
2018-11-23T12:49:12.213Z,1011.01
2018-11-23T12:50:12.191Z,1010.98
2018-11-23T12:51:12.168Z,1010.99
2018-11-23T12:52:12.140Z,1010.98
2018-11-23T12:53:12.117Z,1011.00
2018-11-23T12:54:12.091Z,1010.96
2018-11-23T12:55:12.067Z,1010.96
2018-11-23T12:56:12.041Z,1010.90
2018-11-23T12:57:12.018Z,1010.94
2018-11-23T12:58:11.994Z,1010.91
2018-11-23T12:59:11.970Z,1010.88
2018-11-23T13:00:11.944Z,1010.92
2018-11-23T13:01:11.926Z,1010.91
2018-11-23T13:02:11.898Z,1010.92
2018-11-23T13:03:11.874Z,1010.91
2018-11-23T13:04:11.852Z,1010.88
2018-11-23T13:05:11.825Z,1010.88
2018-11-23T13:06:11.799Z,1010.88
2018-11-23T13:07:11.784Z,1010.86
2018-11-23T13:08:11.752Z,1010.85
2018-11-23T13:09:11.726Z,1010.85
2018-11-23T13:10:11.702Z,1010.83
2018-11-23T13:11:11.701Z,1010.83
2018-11-23T13:12:11.657Z,1010.82
2018-11-23T13:13:11.631Z,1010.84
2018-11-23T13:14:11.606Z,1010.85
2018-11-23T13:15:11.585Z,1010.85
2018-11-23T13:16:11.557Z,1010.85
2018-11-23T13:17:11.535Z,1010.82